Latest Weather Observations for Stenhouse Bay

IDS60801

Issued at 9:31 am CST Sunday 25 June 2017 (issued every 30 minutes, with the page automatically refreshed every 10 minutes)

About weather observations | Map of weather stations | Latest weather observations for SA | Other Formats
Station Details ID: 022049 Name: STENHOUSE BAY Lat: -35.28 Lon: 136.94 Height: 42.0 m
Data from the previous 72 hours. | See also: Recent months at Stenhouse Bay
Date/Time
CST
Temp
°C
App
Temp
°C
Dew
Point
°C
Rel
Hum
%
Delta-T
°C
Wind Press
QNH
hPa
Press
MSL
hPa
Rain since
9am
mm
Dir  Spd
km/h
Gust
km/h
Spd
kts
Gust
kts
25/09:30am 11.9 8.2 9.6 86 1.2 WSW 19 26 10 14 1020.1 1020.1 0.0
25/09:00am 11.9 7.9 9.1 83 1.4 SW 20 30 11 16 1019.7 1019.7 2.0
25/08:30am 11.3 7.3 9.0 86 1.1 SW 20 30 11 16 1019.5 1019.5 2.0
25/08:00am 11.0 6.8 9.8 92 0.6 WSW 22 35 12 19 1019.4 1019.4 1.8
25/07:30am 11.0 7.2 9.9 93 0.6 WSW 20 30 11 16 1019.2 1019.2 1.6
25/07:00am 10.5 8.7 9.3 92 0.6 W 9 11 5 6 1019.0 1019.0 1.0
25/06:30am 10.2 8.5 8.5 89 0.8 W 7 11 4 6 1018.5 1018.5 0.8
25/06:00am 10.6 9.5 8.4 86 1.1 NW 4 4 2 2 1018.3 1018.3 0.8
25/05:30am 10.4 9.3 8.3 87 1.0 WNW 4 6 2 3 1018.0 1018.0 0.8
25/05:00am 10.5 9.4 8.6 88 0.9 NW 4 6 2 3 1018.0 1018.0 0.8
25/04:30am 10.6 9.1 8.4 86 1.1 NW 6 11 3 6 1018.0 1018.0 0.2
25/04:00am 11.6 10.5 8.5 81 1.5 ESE 4 6 2 3 1018.2 1018.2 0.0
25/03:30am 11.7 10.2 8.4 80 1.6 ESE 6 7 3 4 1018.3 1018.3 0.0
25/03:00am 11.6 10.8 8.3 80 1.6 E 2 4 1 2 1018.4 1018.4 0.0
25/02:30am 11.5 10.3 8.2 80 1.6 ESE 4 6 2 3 1018.5 1018.5 0.0
25/02:00am 11.7 10.1 8.2 79 1.7 ESE 6 7 3 4 1018.5 1018.5 0.0
25/01:30am 11.8 10.2 8.6 81 1.6 SSE 7 11 4 6 1018.6 1018.6 0.0
25/01:00am 11.3 9.6 8.3 82 1.5 SE 7 9 4 5 1018.7 1018.7 0.0
25/12:30am 12.0 10.4 8.8 81 1.6 SE 7 9 4 5 1018.8 1018.8 0.0
25/12:00am 11.8 9.8 8.6 81 1.6 SE 9 13 5 7 1018.9 1018.9 0.0
 
Date/Time
CST
Temp
°C
App
Temp
°C
Dew
Point
°C
Rel
Hum
%
Delta-T
°C
Wind Press
QNH
hPa
Press
MSL
hPa
Rain since
9am
mm
Dir  Spd
km/h
Gust
km/h
Spd
kts
Gust
kts
24/11:30pm 11.7 9.4 8.9 83 1.4 SE 11 13 6 7 1019.0 1019.0 0.0
24/11:00pm 11.7 9.9 9.3 85 1.2 SE 9 13 5 7 1018.9 1018.9 0.0
24/10:30pm 11.5 10.6 9.2 86 1.2 SSW 4 9 2 5 1019.0 1019.0 0.0
24/10:00pm 11.4 10.3 8.4 82 1.5 N 4 6 2 3 1018.8 1018.8 0.0
24/09:30pm 12.5 12.3 9.1 80 1.7 CALM 0 4 0 2 1018.8 1018.8 0.0
24/09:00pm 12.2 10.7 9.0 81 1.6 ESE 7 9 4 5 1019.0 1019.0 0.0
24/08:30pm 12.7 10.9 9.5 81 1.6 SE 9 11 5 6 1019.0 1019.0 0.0
24/08:00pm 13.2 11.5 10.0 81 1.7 SSE 9 15 5 8 1018.9 1018.9 0.0
24/07:30pm 12.1 9.7 8.8 80 1.6 WSW 11 13 6 7 1018.9 1018.9 0.0
24/07:00pm 12.4 10.5 9.1 80 1.7 WSW 9 13 5 7 1018.7 1018.7 0.0
24/06:30pm 12.4 10.9 9.2 81 1.6 WSW 7 9 4 5 1018.6 1018.6 0.0
24/06:00pm 12.1 10.5 8.8 80 1.6 WSW 7 9 4 5 1018.4 1018.4 0.0
24/05:30pm 12.7 11.1 8.8 77 2.0 WSW 7 13 4 7 1018.3 1018.3 0.0
24/05:00pm 13.8 12.2 8.8 72 2.5 WSW 7 9 4 5 1018.2 1018.2 0.0
24/04:30pm 14.2 12.7 9.2 72 2.5 WSW 7 9 4 5 1018.3 1018.3 0.0
24/04:00pm 14.4 12.9 9.0 70 2.8 SSW 7 9 4 5 1018.3 1018.3 0.0
24/03:30pm 14.7 12.8 9.1 69 2.9 SSW 9 11 5 6 1018.3 1018.3 0.0
24/03:00pm 14.8 12.9 9.0 68 3.0 SSW 9 13 5 7 1018.3 1018.3 0.0
24/02:30pm 15.2 13.9 9.1 67 3.1 S 6 9 3 5 1018.2 1018.2 0.0
24/02:00pm 14.9 13.5 8.8 67 3.1 SSE 6 7 3 4 1018.4 1018.4 0.0
24/01:30pm 15.5 14.2 9.8 69 3.0 SE 7 9 4 5 1018.6 1018.6 0.0
24/01:00pm 14.7 13.3 9.5 71 2.7 ESE 7 9 4 5 1018.9 1018.9 0.0
24/12:30pm 15.2 13.5 10.0 71 2.7 E 9 13 5 7 1019.2 1019.2 0.0
24/12:00pm 15.5 14.0 10.7 73 2.5 ESE 9 13 5 7 1019.6 1019.6 0.0
24/11:30am 15.7 14.6 10.7 72 2.6 SE 7 11 4 6 1020.0 1020.0 0.0
24/11:00am 16.1 15.0 10.6 70 2.9 E 7 13 4 7 1020.1 1020.1 0.0
24/10:30am 14.9 13.8 9.9 72 2.6 ENE 6 6 3 3 1020.3 1020.3 0.0
24/10:00am 15.3 14.7 9.0 66 3.2 NE 2 4 1 2 1020.5 1020.5 0.0
24/09:30am 14.0 13.6 9.8 76 2.2 NNW 2 4 1 2 1020.1 1020.1 0.0
24/09:00am 14.4 13.3 9.8 74 2.4 E 6 9 3 5 1020.0 1020.0 1.0
24/08:30am 12.6 10.8 9.4 81 1.6 SE 9 11 5 6 1019.8 1019.8 1.0
24/08:00am 12.5 10.7 9.3 81 1.6 SE 9 11 5 6 1019.6 1019.6 1.0
24/07:30am 12.1 10.4 9.7 85 1.2 ESE 9 13 5 7 1019.4 1019.4 1.0
24/07:00am 12.2 10.1 9.9 86 1.2 SE 11 13 6 7 1019.1 1019.1 1.0
24/06:30am 12.6 10.6 10.3 86 1.2 SSE 11 15 6 8 1019.2 1019.2 1.0
24/06:00am 13.4 10.4 9.3 76 2.1 SE 15 19 8 10 1019.0 1019.0 0.0
24/05:30am 13.1 10.5 9.4 78 1.9 SE 13 17 7 9 1018.7 1018.7 0.0
24/05:00am 13.1 10.7 10.1 82 1.5 SE 13 17 7 9 1018.6 1018.6 0.0
24/04:30am 12.9 10.7 9.5 80 1.7 ESE 11 15 6 8 1018.7 1018.7 0.0
24/04:00am 12.9 10.7 9.5 80 1.7 SE 11 15 6 8 1018.8 1018.8 0.0
24/03:30am 13.3 11.6 9.9 80 1.7 SE 9 11 5 6 1018.9 1018.9 0.0
24/03:00am 13.6 11.9 10.0 79 1.9 SE 9 13 5 7 1018.9 1018.9 0.0
24/02:30am 13.4 11.3 9.8 79 1.8 SSE 11 15 6 8 1018.7 1018.7 0.0
24/02:00am 13.4 11.6 9.5 77 2.0 SE 9 13 5 7 1018.7 1018.7 0.0
24/01:30am 13.6 11.8 9.6 77 2.0 ESE 9 13 5 7 1018.8 1018.8 0.0
24/01:00am 13.3 11.2 9.7 79 1.8 SE 11 15 6 8 1018.6 1018.6 0.0
24/12:30am 13.3 11.2 9.9 80 1.7 SE 11 15 6 8 1018.6 1018.6 0.0
24/12:00am 13.6 11.3 10.4 81 1.7 SE 13 15 7 8 1018.7 1018.7 0.0
 
Date/Time
CST
Temp
°C
App
Temp
°C
Dew
Point
°C
Rel
Hum
%
Delta-T
°C
Wind Press
QNH
hPa
Press
MSL
hPa
Rain since
9am
mm
Dir  Spd
km/h
Gust
km/h
Spd
kts
Gust
kts
23/11:30pm 13.5 11.2 10.3 81 1.7 SE 13 17 7 9 1018.8 1018.8 0.0
23/11:00pm 13.8 11.5 10.4 80 1.8 SE 13 19 7 10 1019.0 1019.0 0.0
23/10:30pm 13.9 11.2 10.5 80 1.8 SE 15 20 8 11 1019.0 1019.0 0.0
23/10:00pm 14.4 11.5 11.0 80 1.8 SSE 17 20 9 11 1018.8 1018.8 0.0
23/09:30pm 14.3 11.9 11.3 82 1.6 SSE 15 19 8 10 1018.8 1018.8 0.0
23/09:00pm 14.6 11.6 12.1 85 1.4 SSE 19 20 10 11 1018.6 1018.6 0.0
23/08:30pm 14.3 13.6 12.0 86 1.2 SSW 7 15 4 8 1018.5 1018.5 0.0
23/08:00pm 13.2 12.3 11.3 88 1.0 SW 7 9 4 5 1018.2 1018.2 0.0
23/07:30pm 12.7 11.7 11.1 90 0.8 WSW 7 7 4 4 1017.9 1017.9 0.0
23/07:00pm 12.5 12.0 10.6 88 1.0 W 4 6 2 3 1017.8 1017.8 0.0
23/06:30pm 13.0 11.5 10.7 86 1.2 WSW 9 9 5 5 1017.4 1017.4 0.0
23/06:00pm 13.4 11.5 10.6 83 1.5 WSW 11 13 6 7 1017.1 1017.1 0.0
23/05:30pm 13.7 11.7 10.1 79 1.9 W 11 11 6 6 1016.9 1016.9 0.0
23/05:00pm 15.5 14.0 10.7 73 2.5 WSW 9 9 5 5 1016.9 1016.9 0.0
23/04:30pm 16.7 15.3 11.0 69 3.1 WSW 9 13 5 7 1016.7 1016.7 0.0
23/04:00pm 17.2 15.3 10.6 65 3.5 SW 11 13 6 7 1016.6 1016.6 0.0
23/03:30pm 18.1 16.7 9.5 57 4.5 WSW 7 11 4 6 1016.5 1016.5 0.0
23/03:00pm 17.8 15.7 8.1 53 5.0 WSW 9 11 5 6 1016.5 1016.5 0.0
23/02:30pm 17.9 15.9 8.5 54 4.8 W 9 13 5 7 1016.6 1016.6 0.0
23/02:00pm 18.4 16.5 7.5 49 5.5 W 7 13 4 7 1016.7 1016.7 0.0
23/01:30pm 18.6 16.7 7.7 49 5.6 W 7 15 4 8 1017.0 1017.0 0.0
23/01:00pm 17.3 15.1 9.2 59 4.2 NW 11 15 6 8 1017.3 1017.3 0.0
23/12:30pm 17.6 15.4 9.5 59 4.2 NNW 11 15 6 8 1017.5 1017.5 0.0
23/12:00pm 17.5 15.4 8.4 55 4.7 NW 9 15 5 8 1017.9 1017.9 0.0
23/11:30am 17.8 15.1 8.9 56 4.6 NW 13 17 7 9 1018.1 1018.1 0.0
23/11:00am 17.2 14.6 9.4 60 4.1 NNW 13 17 7 9 1018.2 1018.2 0.0
23/10:30am 18.0 16.1 10.6 62 4.0 NNW 11 17 6 9 1018.4 1018.4 0.0
23/10:00am 16.9 15.5 11.0 68 3.2 N 9 13 5 7 1018.4 1018.4 0.0
23/09:30am 15.3 14.4 10.7 74 2.4 NNW 6 9 3 5 1018.1 1018.1 0.0
23/09:00am 12.5 10.8 9.7 83 1.4 NW 9 9 5 5 1018.0 1018.0 0.0
23/08:30am 13.1 11.5 10.1 82 1.5 NW 9 11 5 6 1018.0 1018.0 0.0
23/08:00am 11.8 9.6 9.2 84 1.3 NW 11 13 6 7 1017.7 1017.7 0.0
23/07:30am 11.9 9.6 9.1 83 1.4 NW 11 13 6 7 1017.6 1017.6 0.0
23/07:00am 11.6 8.9 9.0 84 1.3 NW 13 15 7 8 1017.5 1017.5 0.0
23/06:30am 10.2 7.3 8.3 88 0.9 NW 13 15 7 8 1017.5 1017.5 0.0
23/06:00am 10.8 7.7 8.7 87 1.0 NW 15 15 8 8 1017.2 1017.2 0.0
23/05:30am 9.9 6.8 8.8 93 0.5 NW 15 19 8 10 1017.1 1017.1 0.0
23/05:00am 8.6 5.6 7.7 94 0.4 NW 13 13 7 7 1017.2 1017.2 0.0
23/04:30am 8.8 5.8 7.7 93 0.5 NNW 13 15 7 8 1017.1 1017.1 0.0
23/04:00am 8.9 5.9 7.8 93 0.5 NNW 13 15 7 8 1017.7 1017.7 0.0
23/03:30am 9.2 6.7 8.1 93 0.5 NNW 11 13 6 7 1018.0 1018.0 0.0
23/03:00am 9.0 6.0 7.9 93 0.5 NNW 13 15 7 8 1018.1 1018.1 0.0
23/02:30am 9.3 7.2 8.1 92 0.6 NNW 9 11 5 6 1018.2 1018.2 0.0
23/02:00am 9.4 6.9 8.3 93 0.5 NNW 11 13 6 7 1018.4 1018.4 0.0
23/01:30am 9.7 7.7 8.8 94 0.4 NNW 9 11 5 6 1018.5 1018.5 0.0
23/01:00am 9.3 7.2 8.2 93 0.5 NNW 9 11 5 6 1018.9 1018.9 0.0
23/12:30am 9.5 7.0 8.3 92 0.6 NNW 11 13 6 7 1019.1 1019.1 0.0
23/12:00am 10.2 8.2 8.8 91 0.7 NNW 9 11 5 6 1019.4 1019.4 0.0
 
Date/Time
CST
Temp
°C
App
Temp
°C
Dew
Point
°C
Rel
Hum
%
Delta-T
°C
Wind Press
QNH
hPa
Press
MSL
hPa
Rain since
9am
mm
Dir  Spd
km/h
Gust
km/h
Spd
kts
Gust
kts
22/11:30pm 10.4 8.6 9.3 93 0.5 NNW 9 11 5 6 1019.9 1019.9 0.0
22/11:00pm 9.8 7.8 8.6 92 0.6 NNW 9 11 5 6 1020.0 1020.0 0.0
22/10:30pm 9.5 7.3 7.8 89 0.8 NNW 9 11 5 6 1020.4 1020.4 0.0
22/10:00pm 9.1 6.7 6.9 86 1.0 NNW 9 11 5 6 1020.6 1020.6 0.0
22/09:30pm 9.4 7.3 6.5 82 1.3 NNW 7 9 4 5 1020.7 1020.7 0.0
22/09:00pm 10.0 7.9 6.5 79 1.6 NNW 7 11 4 6 1020.7 1020.7 0.0
22/08:30pm 9.9 7.9 6.3 78 1.7 NNW 6 7 3 4 1020.7 1020.7 0.0
22/08:00pm 10.0 8.0 6.3 78 1.7 NNW 6 7 3 4 1021.0 1021.0 0.0
22/07:30pm 10.7 8.7 6.1 73 2.1 NNW 6 7 3 4 1020.7 1020.7 0.0
22/07:00pm 10.5 8.3 6.1 74 2.0 NNW 7 7 4 4 1020.6 1020.6 0.0
22/06:30pm 10.9 8.3 6.3 73 2.1 NNW 9 9 5 5 1020.5 1020.5 0.0
22/06:00pm 11.7 9.2 6.6 71 2.4 NNW 9 9 5 5 1020.5 1020.5 0.0
22/05:30pm 12.5 10.3 6.3 66 2.9 N 7 9 4 5 1020.6 1020.6 0.0
22/05:00pm 14.9 12.9 6.2 56 4.2 NNW 6 7 3 4 1020.7 1020.7 0.0
22/04:30pm 16.5 14.2 5.8 49 5.2 NNW 7 13 4 7 1020.8 1020.8 0.0
22/04:00pm 17.4 14.8 6.3 48 5.5 NNW 9 13 5 7 1020.9 1020.9 0.0
22/03:30pm 17.6 14.6 5.9 46 5.7 NW 11 15 6 8 1021.0 1021.0 0.0
22/03:00pm 18.3 15.0 6.5 46 5.8 NNW 13 17 7 9 1021.0 1021.0 0.0
22/02:30pm 18.5 16.2 7.6 49 5.5 NW 9 15 5 8 1021.1 1021.1 0.0
22/02:00pm 18.5 15.9 7.6 49 5.5 NNW 11 17 6 9 1021.4 1021.4 0.0
22/01:30pm 18.4 15.5 8.1 51 5.3 NNW 13 20 7 11 1021.6 1021.6 0.0
22/01:00pm 18.5 15.2 8.2 51 5.3 NNW 15 20 8 11 1022.0 1022.0 0.0
22/12:30pm 18.1 14.7 7.8 51 5.2 NNW 15 20 8 11 1022.7 1022.7 0.0
22/12:00pm 17.6 14.2 9.2 58 4.4 N 17 24 9 13 1023.3 1023.3 0.0
22/11:30am 17.3 13.9 10.7 65 3.5 NNW 19 26 10 14 1023.9 1023.9 0.0
22/11:00am 16.9 14.2 11.6 71 2.9 N 17 20 9 11 1024.6 1024.6 0.0
22/10:30am 15.6 13.2 11.4 76 2.2 N 15 19 8 10 1025.0 1025.0 0.0
22/10:00am 13.8 11.9 10.4 80 1.8 N 11 17 6 9 1025.2 1025.2 0.0

Other Formats:

Comma delimited format used in spreadsheet applications
http://www.bom.gov.au/fwo/IDS60801/IDS60801.95806.axf

JavaScript Object Notation format (JSON) in row-major order
http://www.bom.gov.au/fwo/IDS60801/IDS60801.95806.json